Big Bear Station Historical Data
Daily Summary for August 1, 2017 Units:  English    Metric   Both
« Previous Day
Next Day »
Daily Weekly Monthly Yearly Custom
  High: Low: Average:
Temperature: 78.3 °F 58.6 °F 66.3 °F
Dew Point: 64.9 °F 45.0 °F 56.5 °F
Humidity: 93 % 43 % 73 %
Wind Speed: 6.3 mph 0.0 mph 1 mph
Wind Gust: -999.0 mph - -
Wind:- - WSW
Pressure: 30.35 in 30.27 in -
Precipitation: 0.38 in    
Historical Graphs
 
 
Tabular Data for August 1, 2017
Time Temperature Dew Point Pressure Wind Wind Speed Wind Gust Humidity Rainfall Rate (Hourly)
00:03 69.4 °F 45.9 °F 30.30 in Calm   -999.0 mph 43 % 0 in
00:18 69.1 °F 46.3 °F 30.30 in Calm   -999.0 mph 44 % 0 in
00:33 67.8 °F 46.3 °F 30.29 in South 1.7 mph -999.0 mph 46 % 0 in
00:49 67.1 °F 46.2 °F 30.29 in Calm   -999.0 mph 47 % 0 in
01:04 66.2 °F 45.4 °F 30.29 in Calm   -999.0 mph 47 % 0 in
01:19 65.3 °F 45.1 °F 30.28 in Calm   -999.0 mph 48 % 0 in
01:34 64.6 °F 45.0 °F 30.29 in Calm   -999.0 mph 49 % 0 in
01:50 64.4 °F 46.9 °F 30.29 in Calm   -999.0 mph 53 % 0 in
02:05 64.4 °F 46.4 °F 30.29 in Calm   -999.0 mph 52 % 0 in
02:20 64.2 °F 47.2 °F 30.29 in Calm   -999.0 mph 54 % 0 in
02:36 64.9 °F 46.3 °F 30.28 in Calm   -999.0 mph 51 % 0 in
02:51 65.8 °F 47.2 °F 30.28 in Calm   -999.0 mph 51 % 0 in
03:06 59.4 °F 54.9 °F 30.30 in South 2.7 mph -999.0 mph 85 % 0 in
03:21 58.6 °F 54.7 °F 30.29 in South 2.2 mph -999.0 mph 87 % 0 in
03:37 58.6 °F 55.1 °F 30.29 in WNW 2.7 mph -999.0 mph 88 % 0 in
03:52 61.3 °F 53.3 °F 30.29 in SSW 4.2 mph -999.0 mph 75 % 0 in
04:08 61.3 °F 53.7 °F 30.29 in SW 1.1 mph -999.0 mph 76 % 0 in
04:23 61.0 °F 56.1 °F 30.28 in SSE 2.2 mph -999.0 mph 84 % 0 in
04:38 59.7 °F 55.5 °F 30.28 in SSE 2.2 mph -999.0 mph 86 % 0 in
04:53 59.5 °F 55.3 °F 30.28 in Calm   -999.0 mph 86 % 0 in
05:08 59.5 °F 55.3 °F 30.28 in Calm   -999.0 mph 86 % 0 in
05:24 59.5 °F 55.3 °F 30.28 in Calm   -999.0 mph 86 % 0 in
05:39 59.9 °F 55.4 °F 30.29 in Calm   -999.0 mph 85 % 0 in
05:54 60.6 °F 56.1 °F 30.29 in Calm   -999.0 mph 85 % 0 in
06:09 59.9 °F 56.3 °F 30.30 in Calm   -999.0 mph 88 % 0 in
06:24 59.4 °F 56.2 °F 30.30 in South 3.2 mph -999.0 mph 89 % 0 in
06:40 58.8 °F 56.5 °F 30.30 in Calm   -999.0 mph 92 % 0 in
06:55 59.4 °F 57.1 °F 30.30 in South 1.1 mph -999.0 mph 92 % 0 in
07:10 59.7 °F 57.7 °F 30.30 in Calm   -999.0 mph 93 % 0 in
07:25 60.3 °F 58.3 °F 30.30 in Calm   -999.0 mph 93 % 0 in
07:40 61.0 °F 59.0 °F 30.30 in Calm   -999.0 mph 93 % 0 in
07:56 61.9 °F 59.5 °F 30.30 in Calm   -999.0 mph 92 % 0 in
08:11 62.6 °F 59.6 °F 30.30 in Calm   -999.0 mph 90 % 0 in
08:26 64.0 °F 60.4 °F 30.29 in NNW 1.1 mph -999.0 mph 88 % 0 in
08:41 65.5 °F 59.5 °F 30.29 in ENE 2.7 mph -999.0 mph 81 % 0 in
08:57 67.1 °F 59.6 °F 30.30 in Calm   -999.0 mph 77 % 0 in
09:12 69.1 °F 59.3 °F 30.30 in North 1.1 mph -999.0 mph 71 % 0 in
09:27 70.0 °F 58.1 °F 30.30 in NW 4.2 mph -999.0 mph 66 % 0 in
09:42 69.6 °F 55.1 °F 30.31 in North 2.2 mph -999.0 mph 60 % 0 in
09:57 70.9 °F 52.9 °F 30.31 in Calm   -999.0 mph 53 % 0 in
10:13 72.0 °F 53.4 °F 30.31 in WNW 2.2 mph -999.0 mph 52 % 0 in
10:28 74.7 °F 55.4 °F 30.31 in NE 1.7 mph -999.0 mph 51 % 0 in
10:43 75.9 °F 54.2 °F 30.30 in North 3.7 mph -999.0 mph 47 % 0 in
10:58 76.1 °F 54.4 °F 30.31 in SSE 2.2 mph -999.0 mph 47 % 0 in
11:13 75.7 °F 55.7 °F 30.31 in Calm   -999.0 mph 50 % 0 in
11:29 75.7 °F 55.7 °F 30.31 in NNE 2.7 mph -999.0 mph 50 % 0 in
11:44 75.2 °F 54.2 °F 30.31 in NNW 6.3 mph -999.0 mph 48 % 0 in
11:59 78.3 °F 55.8 °F 30.30 in NNW 2.7 mph -999.0 mph 46 % 0 in
12:14 77.0 °F 54.6 °F 30.30 in WNW 2.2 mph -999.0 mph 46 % 0 in
12:29 77.2 °F 54.8 °F 30.30 in SW 2.2 mph -999.0 mph 46 % 0 in
12:45 73.6 °F 58.9 °F 30.31 in Calm   -999.0 mph 60 % 0 in
13:00 69.4 °F 60.8 °F 30.31 in SE 2.7 mph -999.0 mph 74 % 0 in
13:15 66.6 °F 60.9 °F 30.30 in Calm   -999.0 mph 82 % 0 in
13:30 65.3 °F 60.3 °F 30.30 in Calm   -999.0 mph 84 % 0 in
13:46 64.6 °F 59.3 °F 30.30 in Calm   -999.0 mph 83 % 0 in
14:01 65.5 °F 60.9 °F 30.30 in Calm   -999.0 mph 85 % 0 in
14:16 66.6 °F 61.9 °F 30.30 in SW 1.1 mph -999.0 mph 85 % 0 in
14:31 66.4 °F 61.8 °F 30.30 in Calm   -999.0 mph 85 % 0 in
14:46 69.6 °F 64.9 °F 30.29 in NNW 2.2 mph -999.0 mph 85 % 0 in
15:02 70.0 °F 63.9 °F 30.29 in Calm   -999.0 mph 81 % 0 in
15:17 72.7 °F 60.3 °F 30.29 in WNW 2.2 mph -999.0 mph 65 % 0 in
15:32 72.7 °F 63.5 °F 30.28 in SSW 2.2 mph -999.0 mph 73 % 0 in
15:47 68.4 °F 61.3 °F 30.29 in Calm   -999.0 mph 78 % 0 in
16:02 68.2 °F 60.7 °F 30.28 in NNW 2.2 mph -999.0 mph 77 % 0 in
16:18 68.2 °F 61.4 °F 30.29 in NNW 2.7 mph -999.0 mph 79 % 0 in
16:33 68.9 °F 61.4 °F 30.29 in Calm   -999.0 mph 77 % 0 in
16:48 69.1 °F 61.6 °F 30.29 in Calm   -999.0 mph 77 % 0 in
17:04 68.5 °F 59.9 °F 30.29 in WNW 2.7 mph -999.0 mph 74 % 0 in
17:19 68.7 °F 60.1 °F 30.29 in NW 2.2 mph -999.0 mph 74 % 0 in
17:34 68.9 °F 59.9 °F 30.28 in NW 3.2 mph -999.0 mph 73 % 0 in
17:49 69.1 °F 59.7 °F 30.28 in WNW 1.7 mph -999.0 mph 72 % 0 in
18:04 72.5 °F 60.5 °F 30.28 in WSW 1.7 mph -999.0 mph 66 % 0 in
18:20 72.7 °F 59.8 °F 30.28 in NW 1.7 mph -999.0 mph 64 % 0 in
18:35 74.3 °F 60.4 °F 30.28 in Calm   -999.0 mph 62 % 0 in
18:50 72.5 °F 59.6 °F 30.28 in NW 1.1 mph -999.0 mph 64 % 0 in
19:05 72.3 °F 59.9 °F 30.27 in Calm   -999.0 mph 65 % 0 in
19:21 71.1 °F 59.2 °F 30.30 in Calm   -999.0 mph 66 % 0 in
19:36 68.7 °F 59.7 °F 30.30 in Calm   -999.0 mph 73 % 0 in
19:51 66.9 °F 59.1 °F 30.30 in Calm   -999.0 mph 76 % 0 in
20:07 65.8 °F 59.1 °F 30.31 in Calm   -999.0 mph 79 % 0 in
20:22 64.8 °F 58.5 °F 30.32 in Calm   -999.0 mph 80 % 0 in
20:37 64.2 °F 58.6 °F 30.32 in Calm   -999.0 mph 82 % 0 in
20:52 63.9 °F 58.6 °F 30.32 in Calm   -999.0 mph 83 % 0 in
21:08 63.3 °F 58.0 °F 30.33 in Calm   -999.0 mph 83 % 0 in
21:23 63.0 °F 57.8 °F 30.33 in Calm   -999.0 mph 83 % 0 in
21:38 62.8 °F 57.9 °F 30.33 in Calm   -999.0 mph 84 % 0 in
21:54 62.6 °F 57.7 °F 30.34 in Calm   -999.0 mph 84 % 0 in
22:09 62.2 °F 57.0 °F 30.34 in Calm   -999.0 mph 83 % 0 in
22:24 61.9 °F 56.7 °F 30.34 in Calm   -999.0 mph 83 % 0 in
22:39 61.5 °F 56.6 °F 30.34 in Calm   -999.0 mph 84 % 0 in
22:55 61.0 °F 56.5 °F 30.35 in Calm   -999.0 mph 85 % 0 in
23:10 60.8 °F 56.6 °F 30.35 in Calm   -999.0 mph 86 % 0 in
23:25 60.6 °F 56.4 °F 30.34 in Calm   -999.0 mph 86 % 0 in
23:40 60.6 °F 56.7 °F 30.34 in SSE 1.7 mph -999.0 mph 87 % 0 in
23:55 60.4 °F 56.5 °F 30.35 in South 1.1 mph -999.0 mph 87 % 0 in
Big Bear CA Weather
Compliments of Weather Underground - 1.5 mb